Time;durP1;ratioP1;P1;durP2;ratioP2;P2;SDS_P1;SDS_P2;PMS_P1;PMS_P2;Temp;Humidity;BMP_temperature;BMP_pressure;BME280_temperature;BME280_humidity;BME280_pressure;Samples;Min_cycle;Max_cycle;Signal;HPM_P1;HPM_P2
2021/01/08 00:00:46;;;;;;;18.90;14.35;;;;;;;;;;4971171;28;20577;-85
2021/01/08 00:03:24;;;;;;;16.42;13.60;;;;;;;;;;4955141;29;20181;-86
2021/01/08 00:05:51;;;;;;;19.73;13.95;;;;;;;;;;4954063;29;20190;-86
2021/01/08 00:08:28;;;;;;;18.25;15.18;;;;;;;;;;4972273;29;20184;-86
2021/01/08 00:11:00;;;;;;;22.17;15.10;;;;;;;;;;4972508;28;20172;-86
2021/01/08 00:13:26;;;;;;;19.30;15.48;;;;;;;;;;4954993;29;20182;-86
2021/01/08 00:15:56;;;;;;;21.45;15.10;;;;;;;;;;4975373;23;20231;-83
2021/01/08 00:18:22;;;;;;;28.88;15.63;;;;;;;;;;4979980;28;20172;-83
2021/01/08 00:20:48;;;;;;;24.67;15.73;;;;;;;;;;4963295;28;20198;-83
2021/01/08 00:23:14;;;;;;;21.77;16.90;;;;;;;;;;4964138;28;20181;-83
2021/01/08 00:25:40;;;;;;;19.88;13.90;;;;;;;;;;4974144;28;20196;-83
2021/01/08 00:28:07;;;;;;;25.00;17.92;;;;;;;;;;4981893;28;20201;-83
2021/01/08 00:30:33;;;;;;;21.63;16.42;;;;;;;;;;4965087;28;20249;-83
2021/01/08 00:32:59;;;;;;;23.85;17.48;;;;;;;;;;4981568;28;20169;-83
2021/01/08 00:35:25;;;;;;;19.55;15.75;;;;;;;;;;4983715;28;20303;-82
2021/01/08 00:37:52;;;;;;;22.40;16.45;;;;;;;;;;4977260;28;20188;-81
2021/01/08 00:40:18;;;;;;;21.55;18.08;;;;;;;;;;4997601;28;20188;-82
2021/01/08 00:42:44;;;;;;;19.48;14.95;;;;;;;;;;4982740;28;20185;-83
2021/01/08 00:45:10;;;;;;;20.60;16.67;;;;;;;;;;4999009;28;20173;-83
2021/01/08 00:47:36;;;;;;;19.30;15.75;;;;;;;;;;4982825;28;20288;-84
2021/01/08 00:50:03;;;;;;;24.38;17.10;;;;;;;;;;4981403;28;20157;-84
2021/01/08 00:52:29;;;;;;;18.77;16.77;;;;;;;;;;4980262;28;20244;-82
2021/01/08 00:54:56;;;;;;;19.70;16.17;;;;;;;;;;4963917;28;20197;-83
2021/01/08 00:57:43;;;;;;;21.33;17.73;;;;;;;;;;4966931;28;20183;-84
2021/01/08 01:00:10;;;;;;;21.23;16.33;;;;;;;;;;4983818;28;20157;-84
2021/01/08 01:02:36;;;;;;;19.88;15.15;;;;;;;;;;4985291;28;20180;-83
2021/01/08 01:05:03;;;;;;;22.52;16.08;;;;;;;;;;4965178;28;20189;-83
2021/01/08 01:07:29;;;;;;;25.38;18.25;;;;;;;;;;4984857;28;20275;-82
2021/01/08 01:09:55;;;;;;;18.02;14.68;;;;;;;;;;4992107;28;20246;-82
2021/01/08 01:12:21;;;;;;;19.88;15.90;;;;;;;;;;4974008;28;20173;-81
2021/01/08 01:14:48;;;;;;;18.77;16.58;;;;;;;;;;4975460;28;20213;-80
2021/01/08 01:17:16;;;;;;;25.95;16.35;;;;;;;;;;4989564;28;20157;-81
2021/01/08 01:19:44;;;;;;;22.05;17.35;;;;;;;;;;4991371;28;20173;-83
2021/01/08 01:22:10;;;;;;;19.25;14.98;;;;;;;;;;4963262;28;20177;-83
2021/01/08 01:24:36;;;;;;;24.30;17.70;;;;;;;;;;4978535;28;20193;-84
2021/01/08 01:27:02;;;;;;;26.83;19.67;;;;;;;;;;4963841;28;20216;-82
2021/01/08 01:29:31;;;;;;;23.63;16.92;;;;;;;;;;4978713;28;20161;-82
2021/01/08 01:31:57;;;;;;;23.65;17.75;;;;;;;;;;4963456;28;20177;-82
2021/01/08 01:34:24;;;;;;;26.75;20.30;;;;;;;;;;4980425;28;20190;-83
2021/01/08 01:36:50;;;;;;;20.40;17.23;;;;;;;;;;4985493;28;20177;-82
2021/01/08 01:39:16;;;;;;;28.05;20.40;;;;;;;;;;4973055;28;20272;-79
2021/01/08 01:41:42;;;;;;;20.92;16.70;;;;;;;;;;4973203;28;20200;-83
2021/01/08 01:44:09;;;;;;;23.17;17.08;;;;;;;;;;4989614;28;20176;-80
2021/01/08 01:46:35;;;;;;;24.13;17.23;;;;;;;;;;4990403;28;20188;-80
2021/01/08 01:49:01;;;;;;;25.70;18.30;;;;;;;;;;4968599;28;20236;-84
2021/01/08 01:51:27;;;;;;;26.60;17.95;;;;;;;;;;4962594;28;20178;-82
2021/01/08 01:53:54;;;;;;;25.08;18.88;;;;;;;;;;4962521;28;20344;-83
2021/01/08 01:56:20;;;;;;;24.55;18.88;;;;;;;;;;4963578;28;20207;-83
2021/01/08 01:58:46;;;;;;;23.00;17.92;;;;;;;;;;4984446;28;20170;-82
2021/01/08 02:01:12;;;;;;;22.70;18.75;;;;;;;;;;4993902;28;20172;-82
2021/01/08 02:03:52;;;;;;;23.77;17.33;;;;;;;;;;4969922;28;20197;-83
2021/01/08 02:06:21;;;;;;;22.92;16.65;;;;;;;;;;4979609;28;20189;-82
2021/01/08 02:08:49;;;;;;;25.40;17.33;;;;;;;;;;4963842;28;20268;-84
2021/01/08 02:11:16;;;;;;;20.60;18.48;;;;;;;;;;4982412;28;20161;-83
2021/01/08 02:13:47;;;;;;;19.65;16.60;;;;;;;;;;4970469;28;20180;-83
2021/01/08 02:16:13;;;;;;;22.08;16.65;;;;;;;;;;4965750;28;20228;-83
2021/01/08 02:18:40;;;;;;;20.70;16.83;;;;;;;;;;4967985;28;20170;-82
2021/01/08 02:21:08;;;;;;;19.10;17.10;;;;;;;;;;4977513;28;20185;-82
2021/01/08 02:23:53;;;;;;;19.67;16.60;;;;;;;;;;4985217;28;20161;-85
2021/01/08 02:26:19;;;;;;;22.02;17.80;;;;;;;;;;5001533;28;20173;-84
2021/01/08 02:28:46;;;;;;;19.95;16.98;;;;;;;;;;4982060;28;20303;-84
2021/01/08 02:31:13;;;;;;;24.95;18.73;;;;;;;;;;4986950;28;20252;-84
2021/01/08 02:33:40;;;;;;;23.52;17.52;;;;;;;;;;4967438;28;20201;-83
2021/01/08 02:36:06;;;;;;;29.80;18.48;;;;;;;;;;4965619;28;20212;-84
2021/01/08 02:38:32;;;;;;;20.83;17.77;;;;;;;;;;4965957;28;20293;-83
2021/01/08 02:40:59;;;;;;;21.83;18.05;;;;;;;;;;4983715;28;20173;-84
2021/01/08 02:43:27;;;;;;;21.40;16.98;;;;;;;;;;4983165;28;20177;-84
2021/01/08 02:45:54;;;;;;;21.00;17.38;;;;;;;;;;4982776;28;20240;-83
2021/01/08 02:48:20;;;;;;;22.27;17.30;;;;;;;;;;4965189;28;20209;-84
2021/01/08 02:50:47;;;;;;;21.10;17.50;;;;;;;;;;4981638;28;20181;-84
2021/01/08 02:53:24;;;;;;;23.42;18.30;;;;;;;;;;4980707;28;20173;-84
2021/01/08 02:55:55;;;;;;;20.08;15.50;;;;;;;;;;4963743;28;20288;-82
2021/01/08 02:58:22;;;;;;;24.08;18.40;;;;;;;;;;4965526;28;20639;-84
2021/01/08 03:00:50;;;;;;;19.30;16.20;;;;;;;;;;4965332;28;20212;-83
2021/01/08 03:03:17;;;;;;;24.40;18.65;;;;;;;;;;4980089;28;20220;-83
2021/01/08 03:05:43;;;;;;;21.45;16.40;;;;;;;;;;4964230;28;20201;-83
2021/01/08 03:08:09;;;;;;;24.35;17.10;;;;;;;;;;4965241;28;20589;-82
2021/01/08 03:10:35;;;;;;;20.98;17.08;;;;;;;;;;4966809;28;20220;-82
2021/01/08 03:13:03;;;;;;;22.00;17.55;;;;;;;;;;4983176;28;20168;-82
2021/01/08 03:15:32;;;;;;;25.73;18.35;;;;;;;;;;4963255;28;20205;-82
2021/01/08 03:17:58;;;;;;;23.92;17.80;;;;;;;;;;4979915;28;20173;-83
2021/01/08 03:20:27;;;;;;;24.15;18.00;;;;;;;;;;4980034;28;20173;-82
2021/01/08 03:22:53;;;;;;;23.33;18.23;;;;;;;;;;4963500;28;20181;-83
2021/01/08 03:25:19;;;;;;;24.75;20.25;;;;;;;;;;4980765;28;20197;-83
2021/01/08 03:27:55;;;;;;;;;;;;;;;;;;;;;
2021/01/08 03:30:22;;;;;;;26.00;17.20;;;;;;;;;;4980944;28;20153;-83
2021/01/08 03:32:48;;;;;;;23.67;17.25;;;;;;;;;;4979731;28;20184;-83
2021/01/08 03:35:19;;;;;;;24.60;19.85;;;;;;;;;;4948256;28;20193;-83
2021/01/08 03:37:45;;;;;;;24.23;19.48;;;;;;;;;;4949803;28;20188;-83
2021/01/08 03:40:12;;;;;;;25.25;19.50;;;;;;;;;;4950223;28;20192;-84
2021/01/08 03:42:44;;;;;;;29.02;22.88;;;;;;;;;;4964084;28;20170;-84
2021/01/08 03:45:10;;;;;;;23.52;19.02;;;;;;;;;;4964516;28;20200;-84
2021/01/08 03:47:36;;;;;;;23.80;19.45;;;;;;;;;;4982016;28;20193;-84
2021/01/08 03:50:03;;;;;;;25.98;19.98;;;;;;;;;;4981814;28;20161;-84
2021/01/08 03:52:29;;;;;;;26.05;19.60;;;;;;;;;;4948534;28;20177;-84
2021/01/08 03:54:55;;;;;;;26.02;18.80;;;;;;;;;;4967075;28;20236;-82
2021/01/08 03:57:21;;;;;;;27.77;19.73;;;;;;;;;;4957096;28;20185;-83
2021/01/08 03:59:47;;;;;;;30.92;19.40;;;;;;;;;;4996942;28;20185;-84
2021/01/08 04:02:13;;;;;;;25.58;17.50;;;;;;;;;;4967715;28;20181;-85
2021/01/08 04:04:40;;;;;;;24.38;19.33;;;;;;;;;;4967433;28;20221;-83
2021/01/08 04:07:06;;;;;;;23.15;17.48;;;;;;;;;;4950979;28;20320;-83
2021/01/08 04:09:32;;;;;;;25.05;18.50;;;;;;;;;;4964797;28;20161;-83
2021/01/08 04:11:58;;;;;;;29.00;18.80;;;;;;;;;;4951294;28;20177;-84
2021/01/08 04:14:24;;;;;;;19.98;16.80;;;;;;;;;;4969641;28;20193;-83
2021/01/08 04:16:51;;;;;;;29.05;21.60;;;;;;;;;;4989070;28;20165;-82
2021/01/08 04:19:17;;;;;;;24.70;19.63;;;;;;;;;;4975067;28;20173;-80
2021/01/08 04:21:45;;;;;;;25.65;20.20;;;;;;;;;;4970497;28;20196;-84
2021/01/08 04:24:12;;;;;;;24.77;19.60;;;;;;;;;;4949022;28;20174;-84
2021/01/08 04:26:38;;;;;;;26.10;20.67;;;;;;;;;;4964154;28;20762;-84
2021/01/08 04:29:07;;;;;;;29.98;21.00;;;;;;;;;;4982687;28;20161;-83
2021/01/08 04:31:34;;;;;;;29.45;20.23;;;;;;;;;;4980566;28;20588;-83
2021/01/08 04:34:00;;;;;;;24.92;19.70;;;;;;;;;;4965059;28;20178;-84
2021/01/08 04:36:26;;;;;;;26.08;19.27;;;;;;;;;;4949648;28;20192;-83
2021/01/08 04:38:52;;;;;;;23.75;20.08;;;;;;;;;;4982065;28;20168;-84
2021/01/08 04:41:19;;;;;;;23.33;18.90;;;;;;;;;;4953828;28;20292;-82
2021/01/08 04:43:45;;;;;;;32.90;20.27;;;;;;;;;;4997980;28;20173;-80
2021/01/08 04:46:11;;;;;;;23.67;18.27;;;;;;;;;;4998499;28;20194;-81
2021/01/08 04:48:38;;;;;;;26.70;21.27;;;;;;;;;;4998084;28;20195;-81
2021/01/08 04:51:05;;;;;;;26.15;17.35;;;;;;;;;;4981776;28;20192;-80
2021/01/08 04:53:32;;;;;;;30.83;19.40;;;;;;;;;;4997624;28;20185;-81
2021/01/08 04:56:00;;;;;;;21.58;18.15;;;;;;;;;;4965378;28;20197;-83
2021/01/08 04:58:29;;;;;;;28.13;19.45;;;;;;;;;;4964730;28;20232;-84
2021/01/08 05:00:55;;;;;;;26.30;18.30;;;;;;;;;;4976260;28;20177;-84
2021/01/08 05:03:21;;;;;;;27.88;20.25;;;;;;;;;;4987086;28;20235;-84
2021/01/08 05:05:48;;;;;;;29.90;21.98;;;;;;;;;;4985099;28;20185;-83
2021/01/08 05:08:14;;;;;;;24.52;18.98;;;;;;;;;;4971692;28;20197;-83
2021/01/08 05:10:40;;;;;;;26.17;19.75;;;;;;;;;;4965771;28;20248;-83
2021/01/08 05:13:06;;;;;;;29.08;20.15;;;;;;;;;;4947528;28;20183;-81
2021/01/08 05:15:32;;;;;;;26.88;19.40;;;;;;;;;;4980337;28;20216;-84
2021/01/08 05:17:59;;;;;;;26.83;20.02;;;;;;;;;;4964072;28;20191;-84
2021/01/08 05:20:31;;;;;;;23.65;20.13;;;;;;;;;;4981966;28;20188;-84
2021/01/08 05:23:00;;;;;;;29.90;21.83;;;;;;;;;;4949694;28;20177;-83
2021/01/08 05:25:28;;;;;;;29.35;21.15;;;;;;;;;;4985193;28;20189;-84
2021/01/08 05:27:54;;;;;;;26.00;21.15;;;;;;;;;;4961832;28;20189;-82
2021/01/08 05:30:23;;;;;;;25.05;19.15;;;;;;;;;;4964190;28;20185;-82
2021/01/08 05:32:59;;;;;;;25.50;19.15;;;;;;;;;;4974475;28;20173;-81
2021/01/08 05:35:29;;;;;;;28.48;19.38;;;;;;;;;;4950354;28;20205;-80
2021/01/08 05:37:55;;;;;;;25.65;18.52;;;;;;;;;;4977745;28;20169;-85
2021/01/08 05:40:26;;;;;;;26.33;17.80;;;;;;;;;;4965789;28;20236;-83
2021/01/08 05:43:02;;;;;;;27.33;19.35;;;;;;;;;;4998830;28;20181;-85
2021/01/08 05:45:29;;;;;;;28.80;20.15;;;;;;;;;;4990745;28;20197;-85
2021/01/08 05:47:56;;;;;;;26.15;19.95;;;;;;;;;;4965320;28;20283;-83
2021/01/08 05:50:39;;;;;;;27.75;20.52;;;;;;;;;;4983344;28;20170;-83
2021/01/08 05:53:10;;;;;;;25.20;18.90;;;;;;;;;;4955011;28;20208;-82
2021/01/08 05:55:37;;;;;;;28.02;20.25;;;;;;;;;;4957621;28;20283;-84
2021/01/08 05:58:18;;;;;;;31.20;22.60;;;;;;;;;;4991571;28;20173;-84
2021/01/08 06:00:54;;;;;;;27.90;18.67;;;;;;;;;;4949478;29;20309;-82
2021/01/08 06:03:24;;;;;;;26.15;19.95;;;;;;;;;;4951410;29;20546;-79
2021/01/08 06:05:57;;;;;;;24.90;18.20;;;;;;;;;;4950751;29;20194;-83
2021/01/08 06:08:39;;;;;;;28.13;20.13;;;;;;;;;;4951800;29;20193;-84
2021/01/08 06:11:09;;;;;;;26.30;20.95;;;;;;;;;;4953941;29;20174;-84
2021/01/08 06:13:39;;;;;;;25.58;18.77;;;;;;;;;;4938329;29;20166;-81
2021/01/08 06:16:06;;;;;;;25.92;19.17;;;;;;;;;;4937498;29;20292;-84
2021/01/08 06:18:35;;;;;;;24.83;19.10;;;;;;;;;;4952378;29;20193;-83
2021/01/08 06:21:09;;;;;;;27.02;19.52;;;;;;;;;;4946680;29;20229;-83
2021/01/08 06:23:45;;;;;;;28.30;20.60;;;;;;;;;;4966758;29;20170;-84
2021/01/08 06:26:12;;;;;;;25.98;19.35;;;;;;;;;;4931075;29;20212;-83
2021/01/08 06:28:41;;;;;;;26.30;18.33;;;;;;;;;;4932854;29;20697;-84
2021/01/08 06:31:22;;;;;;;24.95;20.00;;;;;;;;;;4947804;29;20166;-84
2021/01/08 06:34:08;;;;;;;21.95;17.80;;;;;;;;;;4947560;29;20174;-83
2021/01/08 06:36:55;;;;;;;30.55;20.70;;;;;;;;;;4965131;29;20177;-84
2021/01/08 06:39:37;;;;;;;25.90;21.02;;;;;;;;;;4949055;29;20162;-86
2021/01/08 06:42:04;;;;;;;27.92;19.40;;;;;;;;;;4933255;29;20232;-85
2021/01/08 06:44:34;;;;;;;28.33;19.20;;;;;;;;;;4933152;29;20198;-84
2021/01/08 06:47:04;;;;;;;28.83;21.80;;;;;;;;;;4933216;29;20728;-84
2021/01/08 06:49:51;;;;;;;25.13;19.08;;;;;;;;;;4933823;29;20158;-85
2021/01/08 06:52:21;;;;;;;29.17;20.55;;;;;;;;;;4922112;29;20178;-85
2021/01/08 06:55:04;;;;;;;26.60;18.70;;;;;;;;;;4936533;29;20313;-84
2021/01/08 06:57:43;;;;;;;27.35;21.10;;;;;;;;;;4935924;29;20170;-84
2021/01/08 07:00:13;;;;;;;24.00;18.95;;;;;;;;;;4938203;29;20177;-84
2021/01/08 07:02:40;;;;;;;28.23;19.30;;;;;;;;;;4940643;29;20178;-86
2021/01/08 07:05:49;;;;;;;;;;;;;;;;;;;;;
2021/01/08 07:09:07;;;;;;;27.02;20.00;;;;;;;;;;4979089;28;20188;-84
2021/01/08 07:11:48;;;;;;;;;;;;;;;;;;;;;
2021/01/08 07:14:45;;;;;;;;;;;;;;;;;;;;;
2021/01/08 07:17:32;;;;;;;;;;;;;;;;;;;;;
2021/01/08 07:20:33;;;;;;;;;;;;;;;;;;;;;
2021/01/08 07:23:42;;;;;;;;;;;;;;;;;;;;;
2021/01/08 09:06:07;;;;;;;;;;;;;;;;;;;;;
2021/01/08 09:09:48;;;;;;;30.02;23.52;;;;;;;;;;5012629;28;20211;-84
2021/01/08 09:12:54;;;;;;;32.10;22.90;;;;;;;;;;5010655;28;20178;-86
2021/01/08 09:16:02;;;;;;;;;;;;;;;;;;;;;
2021/01/08 09:23:17;;;;;;;;;;;;;;;;;;;;;
2021/01/08 09:26:09;;;;;;;24.08;19.63;;;;;;;;;;4996724;28;20274;-87
2021/01/08 09:54:18;;;;;;;;;;;;;;;;;;;;;
2021/01/08 09:57:35;;;;;;;;;;;;;;;;;;;;;
2021/01/08 10:00:33;;;;;;;22.95;18.48;;;;;;;;;;4972551;28;20181;-85
2021/01/08 10:07:02;;;;;;;26.15;20.05;;;;;;;;;;4985127;28;20219;-84
2021/01/08 10:13:48;;;;;;;;;;;;;;;;;;;;;
2021/01/08 10:20:39;;;;;;;24.95;20.58;;;;;;;;;;4982094;28;20768;-83
2021/01/08 10:26:31;;;;;;;31.58;22.60;;;;;;;;;;4964230;29;20173;-84
2021/01/08 10:28:58;;;;;;;27.80;20.40;;;;;;;;;;4964521;28;20179;-84
2021/01/08 10:31:24;;;;;;;28.58;19.83;;;;;;;;;;4965779;28;20444;-85
2021/01/08 10:33:59;;;;;;;27.65;19.52;;;;;;;;;;4971675;28;20170;-85
2021/01/08 10:36:25;;;;;;;30.13;22.27;;;;;;;;;;4985727;28;20184;-87
2021/01/08 10:38:52;;;;;;;26.58;19.65;;;;;;;;;;4988192;28;20197;-85
2021/01/08 10:41:24;;;;;;;26.35;20.00;;;;;;;;;;4998668;28;20260;-83
2021/01/08 10:44:10;;;;;;;28.40;24.75;;;;;;;;;;4991905;28;20195;-86
2021/01/08 10:46:40;;;;;;;29.15;19.58;;;;;;;;;;4991145;28;20195;-85
2021/01/08 10:49:06;;;;;;;31.33;20.85;;;;;;;;;;4978508;28;20169;-85
2021/01/08 10:51:36;;;;;;;28.90;22.67;;;;;;;;;;4989910;28;20186;-84
2021/01/08 10:54:02;;;;;;;26.42;21.33;;;;;;;;;;4988826;28;20291;-83
2021/01/08 10:56:31;;;;;;;28.13;22.63;;;;;;;;;;4987575;28;20200;-84
2021/01/08 10:59:00;;;;;;;35.53;22.20;;;;;;;;;;4988322;28;20197;-85
2021/01/08 11:01:26;;;;;;;26.67;18.27;;;;;;;;;;4954832;28;20225;-86
2021/01/08 11:03:53;;;;;;;25.90;18.95;;;;;;;;;;4969545;28;20217;-86
2021/01/08 11:06:19;;;;;;;23.02;19.58;;;;;;;;;;4954460;28;20183;-84
2021/01/08 11:08:56;;;;;;;;;;;;;;;;;;;;;
2021/01/08 11:11:23;;;;;;;26.30;19.95;;;;;;;;;;4987780;28;20204;-83
2021/01/08 11:13:59;;;;;;;;;;;;;;;;;;;;;
2021/01/08 11:16:26;;;;;;;22.23;17.38;;;;;;;;;;4986846;28;20169;-86
2021/01/08 11:18:53;;;;;;;21.48;19.17;;;;;;;;;;4968642;28;20533;-86
2021/01/08 11:21:20;;;;;;;23.17;17.50;;;;;;;;;;4987996;28;20181;-84
2021/01/08 11:23:53;;;;;;;23.75;18.83;;;;;;;;;;4971835;28;20763;-87
2021/01/08 11:26:40;;;;;;;26.52;18.88;;;;;;;;;;4991528;28;20208;-84
2021/01/08 11:29:07;;;;;;;21.58;19.27;;;;;;;;;;4970359;28;20193;-84
2021/01/08 11:31:34;;;;;;;35.95;20.40;;;;;;;;;;4971795;28;20196;-84
2021/01/08 11:34:01;;;;;;;24.02;19.70;;;;;;;;;;4970281;28;20169;-85
2021/01/08 11:36:27;;;;;;;26.30;20.50;;;;;;;;;;4971137;28;20181;-84
2021/01/08 11:38:53;;;;;;;33.58;20.25;;;;;;;;;;4971002;28;20173;-84
2021/01/08 11:41:22;;;;;;;23.90;18.88;;;;;;;;;;4973638;28;20215;-84
2021/01/08 11:43:49;;;;;;;23.80;20.10;;;;;;;;;;4990479;28;20698;-86
2021/01/08 11:46:19;;;;;;;25.50;19.67;;;;;;;;;;4992719;28;20169;-85
2021/01/08 11:48:45;;;;;;;20.40;17.63;;;;;;;;;;4996405;28;20196;-84
2021/01/08 11:51:15;;;;;;;22.77;17.42;;;;;;;;;;4985630;28;20193;-86
2021/01/08 11:53:49;;;;;;;23.55;18.70;;;;;;;;;;4991751;28;20169;-85
2021/01/08 11:56:29;;;;;;;22.10;17.33;;;;;;;;;;4975913;28;20177;-86
2021/01/08 11:58:59;;;;;;;19.58;16.77;;;;;;;;;;4992445;28;20260;-84
2021/01/08 12:01:27;;;;;;;21.95;15.77;;;;;;;;;;4972861;28;20201;-85
2021/01/08 12:03:53;;;;;;;18.52;14.88;;;;;;;;;;4973613;28;20173;-84
2021/01/08 12:06:30;;;;;;;19.75;17.40;;;;;;;;;;4998411;28;20250;-85
2021/01/08 12:09:07;;;;;;;;;;;;;;;;;;;;;
2021/01/08 12:11:33;;;;;;;21.08;16.67;;;;;;;;;;4974191;28;20213;-87
2021/01/08 12:13:59;;;;;;;18.20;15.23;;;;;;;;;;4971267;28;20173;-87
2021/01/08 12:16:31;;;;;;;22.02;13.93;;;;;;;;;;4968759;28;20176;-83
2021/01/08 12:18:57;;;;;;;19.38;15.00;;;;;;;;;;4967665;28;20181;-85
2021/01/08 12:21:23;;;;;;;18.90;15.75;;;;;;;;;;4970296;28;20205;-85
2021/01/08 12:23:50;;;;;;;19.95;12.65;;;;;;;;;;4973896;28;20546;-85
2021/01/08 12:26:20;;;;;;;22.67;18.95;;;;;;;;;;4987283;28;20166;-84
2021/01/08 12:28:52;;;;;;;20.40;16.58;;;;;;;;;;4967083;29;20205;-85
2021/01/08 12:31:55;;;;;;;18.50;15.32;;;;;;;;;;4963485;29;20202;-85
2021/01/08 12:35:19;;;;;;;;;;;;;;;;;;;;;
2021/01/08 12:49:22;;;;;;;;;;;;;;;;;;;;;
2021/01/08 13:11:22;;;;;;;;;;;;;;;;;;;;;
2021/01/08 13:44:32;;;;;;;13.18;10.65;;;;;;;;;;4931078;29;20612;-84
2021/01/08 14:10:07;;;;;;;;;;;;;;;;;;;;;
2021/01/08 14:16:44;;;;;;;;;;;;;;;;;;;;;
2021/01/08 14:20:00;;;;;;;15.80;12.20;;;;;;;;;;4934714;29;20220;-87
2021/01/08 14:39:00;;;;;;;;;;;;;;;;;;;;;
2021/01/08 14:42:36;;;;;;;;;;;;;;;;;;;;;
2021/01/08 14:45:42;;;;;;;17.75;11.90;;;;;;;;;;4989221;28;20179;-85
2021/01/08 14:48:41;;;;;;;;;;;;;;;;;;;;;
2021/01/08 14:54:57;;;;;;;13.95;12.15;;;;;;;;;;4984820;28;20156;-85
2021/01/08 14:57:51;;;;;;;;;;;;;;;;;;;;;
2021/01/08 15:00:37;;;;;;;17.13;11.98;;;;;;;;;;4970381;28;20172;-85
2021/01/08 15:03:23;;;;;;;14.10;9.75;;;;;;;;;;4970697;28;20355;-85
2021/01/08 15:06:19;;;;;;;17.35;11.23;;;;;;;;;;4973189;28;20185;-86
2021/01/08 15:08:56;;;;;;;16.30;12.18;;;;;;;;;;4983565;28;20221;-84
2021/01/08 15:11:44;;;;;;;13.63;10.57;;;;;;;;;;4997244;28;20208;-85
2021/01/08 15:14:19;;;;;;;11.60;8.43;;;;;;;;;;4961178;28;20181;-84
2021/01/08 15:16:48;;;;;;;16.00;9.40;;;;;;;;;;4951400;28;20181;-85
2021/01/08 15:19:31;;;;;;;;;;;;;;;;;;;;;
2021/01/08 15:22:01;;;;;;;8.98;7.30;;;;;;;;;;4983891;28;20735;-83
2021/01/08 15:24:30;;;;;;;12.65;9.63;;;;;;;;;;4968393;28;20165;-84
2021/01/08 15:27:18;;;;;;;8.55;7.40;;;;;;;;;;4971255;28;20197;-84
2021/01/08 15:30:18;;;;;;;;;;;;;;;;;;;;;
2021/01/08 15:33:01;;;;;;;10.95;8.63;;;;;;;;;;4983154;28;20200;-84
2021/01/08 15:35:32;;;;;;;11.98;8.75;;;;;;;;;;4982785;28;20169;-84
2021/01/08 15:38:12;;;;;;;9.38;7.80;;;;;;;;;;4988712;28;20308;-84
2021/01/08 15:41:01;;;;;;;;;;;;;;;;;;;;;
2021/01/08 15:43:40;;;;;;;11.48;9.57;;;;;;;;;;4968737;28;20193;-85
2021/01/08 15:46:49;;;;;;;;;;;;;;;;;;;;;
2021/01/08 15:49:49;;;;;;;;;;;;;;;;;;;;;
2021/01/08 15:52:16;;;;;;;10.93;8.25;;;;;;;;;;4965158;28;20199;-83
2021/01/08 15:54:55;;;;;;;8.88;7.38;;;;;;;;;;4965019;28;20236;-83
2021/01/08 15:57:59;;;;;;;14.85;9.45;;;;;;;;;;4979679;28;20192;-84
2021/01/08 16:00:46;;;;;;;7.90;7.07;;;;;;;;;;4965696;28;20180;-84
2021/01/08 16:03:23;;;;;;;7.00;6.40;;;;;;;;;;4969519;28;20257;-83
2021/01/08 16:06:51;;;;;;;10.60;8.20;;;;;;;;;;4949475;28;20195;-85
2021/01/08 16:09:19;;;;;;;;;;;;;;;;;;;;;
2021/01/08 16:12:11;;;;;;;10.38;8.68;;;;;;;;;;4982090;28;20193;-84
2021/01/08 16:15:08;;;;;;;;;;;;;;;;;;;;;
2021/01/08 16:18:18;;;;;;;7.30;6.60;;;;;;;;;;4984380;28;20173;-85
2021/01/08 16:20:45;;;;;;;8.98;7.75;;;;;;;;;;4997622;28;20584;-85
2021/01/08 17:01:20;;;;;;;4.32;3.95;;;;;;;;;;5097171;23;20226;-86
2021/01/08 17:03:52;;;;;;;5.22;4.82;;;;;;;;;;4953566;29;20210;-81
2021/01/08 17:06:22;;;;;;;5.82;5.22;;;;;;;;;;4971021;29;20191;-82
2021/01/08 17:08:48;;;;;;;5.53;4.47;;;;;;;;;;4975580;28;20228;-83
2021/01/08 17:11:18;;;;;;;8.07;6.03;;;;;;;;;;4959251;28;20251;-82
2021/01/08 17:13:45;;;;;;;5.57;4.93;;;;;;;;;;4959099;28;20187;-79
2021/01/08 17:16:11;;;;;;;6.72;5.53;;;;;;;;;;4969445;28;20174;-83
2021/01/08 17:18:38;;;;;;;4.72;4.20;;;;;;;;;;4944598;29;20278;-82
2021/01/08 17:21:05;;;;;;;6.72;4.82;;;;;;;;;;4960473;29;20185;-81
2021/01/08 17:23:31;;;;;;;4.18;3.78;;;;;;;;;;4967917;29;20221;-83
2021/01/08 17:26:00;;;;;;;5.13;4.63;;;;;;;;;;4953367;29;20175;-79
2021/01/08 17:28:27;;;;;;;4.72;4.32;;;;;;;;;;4953611;29;20613;-81
2021/01/08 17:30:54;;;;;;;5.50;5.05;;;;;;;;;;4953149;29;20175;-82
2021/01/08 17:33:23;;;;;;;11.60;7.28;;;;;;;;;;4953989;29;20201;-83
2021/01/08 17:35:50;;;;;;;7.32;6.32;;;;;;;;;;4963275;29;20170;-83
2021/01/08 17:38:17;;;;;;;4.15;3.75;;;;;;;;;;4969249;29;20167;-79
2021/01/08 17:40:43;;;;;;;4.80;4.40;;;;;;;;;;4964077;29;20178;-83
2021/01/08 17:43:09;;;;;;;6.05;5.55;;;;;;;;;;4958366;29;20198;-84
2021/01/08 17:45:37;;;;;;;4.82;4.38;;;;;;;;;;4940380;29;20171;-84
2021/01/08 17:48:04;;;;;;;5.95;4.43;;;;;;;;;;4945239;29;20202;-82
2021/01/08 17:50:34;;;;;;;4.50;4.13;;;;;;;;;;4960809;29;20175;-83
2021/01/08 17:53:01;;;;;;;13.57;6.78;;;;;;;;;;4961267;29;20198;-81
2021/01/08 17:55:27;;;;;;;9.82;5.25;;;;;;;;;;4944958;29;20660;-81
2021/01/08 17:57:53;;;;;;;5.78;4.75;;;;;;;;;;4960684;29;20167;-82
2021/01/08 18:00:20;;;;;;;4.03;3.65;;;;;;;;;;4960828;29;20187;-83
2021/01/08 18:02:46;;;;;;;4.65;4.10;;;;;;;;;;4960193;29;20265;-83
2021/01/08 18:05:15;;;;;;;6.40;5.40;;;;;;;;;;4960573;29;20171;-85
2021/01/08 18:07:41;;;;;;;5.90;5.32;;;;;;;;;;4961068;29;20266;-82
2021/01/08 18:10:11;;;;;;;5.40;4.97;;;;;;;;;;4961559;29;20178;-83
2021/01/08 18:12:38;;;;;;;4.10;3.75;;;;;;;;;;4945789;29;20190;-81
2021/01/08 18:15:05;;;;;;;4.43;3.40;;;;;;;;;;4928447;29;20163;-83
2021/01/08 18:17:34;;;;;;;5.70;4.90;;;;;;;;;;4962281;29;20656;-85
2021/01/08 18:20:01;;;;;;;4.72;4.22;;;;;;;;;;4949609;29;20193;-84
2021/01/08 18:22:27;;;;;;;5.07;4.50;;;;;;;;;;4962099;29;20220;-82
2021/01/08 18:24:53;;;;;;;5.03;4.57;;;;;;;;;;4961652;29;20269;-83
2021/01/08 18:27:19;;;;;;;4.07;3.67;;;;;;;;;;4947423;29;20202;-83
2021/01/08 18:29:45;;;;;;;5.35;4.82;;;;;;;;;;4961272;29;20203;-82
2021/01/08 18:32:12;;;;;;;4.30;3.90;;;;;;;;;;4961537;29;20215;-84
2021/01/08 18:34:38;;;;;;;4.85;3.65;;;;;;;;;;4948076;29;20270;-83
2021/01/08 18:37:07;;;;;;;6.05;5.55;;;;;;;;;;4948362;29;20637;-83
2021/01/08 18:39:36;;;;;;;4.80;4.40;;;;;;;;;;4954823;29;20171;-84
2021/01/08 18:42:02;;;;;;;5.03;4.63;;;;;;;;;;4971128;29;20225;-82
2021/01/08 18:44:31;;;;;;;6.22;4.20;;;;;;;;;;4958183;28;20178;-84
2021/01/08 18:46:57;;;;;;;5.40;4.90;;;;;;;;;;4962215;29;20178;-80
2021/01/08 18:49:24;;;;;;;5.05;4.55;;;;;;;;;;4977591;28;20195;-83
2021/01/08 18:51:50;;;;;;;5.45;4.18;;;;;;;;;;4977630;28;20174;-82
2021/01/08 18:54:16;;;;;;;6.00;5.05;;;;;;;;;;4961137;28;20250;-81
2021/01/08 18:56:43;;;;;;;8.95;5.85;;;;;;;;;;4976021;28;20259;-81
2021/01/08 18:59:09;;;;;;;6.22;5.63;;;;;;;;;;4975519;28;20199;-81
2021/01/08 19:01:36;;;;;;;6.15;5.65;;;;;;;;;;4961424;29;20193;-82
2021/01/08 19:04:05;;;;;;;5.78;5.22;;;;;;;;;;4974881;29;20193;-81
2021/01/08 19:06:39;;;;;;;6.25;4.80;;;;;;;;;;4957512;29;20163;-82
2021/01/08 19:09:11;;;;;;;6.85;5.15;;;;;;;;;;4956681;29;20199;-81
2021/01/08 19:11:40;;;;;;;5.38;4.85;;;;;;;;;;4944452;29;20591;-82
2021/01/08 19:14:07;;;;;;;31.08;28.92;;;;;;;;;;4943150;29;20186;-81
2021/01/08 19:16:34;;;;;;;5.78;5.18;;;;;;;;;;4959546;29;20185;-83
2021/01/08 19:19:00;;;;;;;4.68;4.28;;;;;;;;;;4944280;29;20197;-84
2021/01/08 19:21:27;;;;;;;4.13;3.75;;;;;;;;;;4959685;29;20196;-83
2021/01/08 19:24:03;;;;;;;4.95;4.10;;;;;;;;;;4960148;29;20279;-83
2021/01/08 19:26:30;;;;;;;5.35;4.03;;;;;;;;;;4960855;29;20198;-82
2021/01/08 19:28:56;;;;;;;7.03;6.35;;;;;;;;;;4947450;29;20217;-82
2021/01/08 19:31:24;;;;;;;4.63;3.53;;;;;;;;;;4963285;29;20243;-83
2021/01/08 19:33:52;;;;;;;5.25;4.70;;;;;;;;;;4964739;29;20174;-84
2021/01/08 19:36:20;;;;;;;5.63;5.13;;;;;;;;;;4955652;28;20186;-83
2021/01/08 19:38:46;;;;;;;7.57;4.50;;;;;;;;;;4975673;28;20174;-82
2021/01/08 19:41:24;;;;;;;4.65;3.97;;;;;;;;;;4955983;29;20178;-83
2021/01/08 19:43:51;;;;;;;5.35;4.22;;;;;;;;;;4961570;29;20179;-84
2021/01/08 19:46:18;;;;;;;6.90;5.47;;;;;;;;;;4947504;29;20198;-79
2021/01/08 19:48:44;;;;;;;4.70;4.20;;;;;;;;;;4965912;29;20212;-81
2021/01/08 19:51:17;;;;;;;5.18;4.35;;;;;;;;;;4967701;29;20180;-81
2021/01/08 19:53:44;;;;;;;4.93;4.53;;;;;;;;;;4948948;29;20167;-81
2021/01/08 19:56:10;;;;;;;6.05;5.57;;;;;;;;;;4969412;28;20238;-79
2021/01/08 19:58:37;;;;;;;8.13;6.40;;;;;;;;;;4960326;28;20175;-79
2021/01/08 20:01:04;;;;;;;7.13;6.00;;;;;;;;;;4959885;29;20309;-79
2021/01/08 20:03:33;;;;;;;10.10;6.40;;;;;;;;;;4954597;29;20219;-82
2021/01/08 20:05:59;;;;;;;9.55;6.57;;;;;;;;;;4960623;29;20193;-82
2021/01/08 20:08:53;;;;;;;;;;;;;;;;;;;;;
2021/01/08 20:11:33;;;;;;;9.07;7.07;;;;;;;;;;4962226;28;20183;-84
2021/01/08 20:14:24;;;;;;;6.90;6.30;;;;;;;;;;4959717;29;20219;-84
2021/01/08 20:17:21;;;;;;;8.55;7.43;;;;;;;;;;4957965;29;20552;-83
2021/01/08 20:19:52;;;;;;;6.90;6.20;;;;;;;;;;4942946;29;20203;-84